sensor_id;sensor_type;location;lat;lon;timestamp;pressure;altitude;pressure_sealevel;temperature;humidity
76229;BME280;65021;53.174;18.160;2024-01-16T00:00:20;99152.56;;;-3.12;62.61
76229;BME280;65021;53.174;18.160;2024-01-16T00:03:06;99153.39;;;-3.16;62.19
76229;BME280;65021;53.174;18.160;2024-01-16T00:05:33;99158.02;;;-3.23;61.89
76229;BME280;65021;53.174;18.160;2024-01-16T00:07:59;99158.67;;;-3.27;61.76
76229;BME280;65021;53.174;18.160;2024-01-16T00:10:26;99165.10;;;-3.31;61.84
76229;BME280;65021;53.174;18.160;2024-01-16T00:12:52;99173.21;;;-3.33;61.83
76229;BME280;65021;53.174;18.160;2024-01-16T00:15:19;99178.08;;;-3.35;62.29
76229;BME280;65021;53.174;18.160;2024-01-16T00:17:45;99181.75;;;-3.36;61.92
76229;BME280;65021;53.174;18.160;2024-01-16T00:20:12;99180.13;;;-3.35;61.80
76229;BME280;65021;53.174;18.160;2024-01-16T00:22:38;99184.86;;;-3.37;62.76
76229;BME280;65021;53.174;18.160;2024-01-16T00:25:05;99190.02;;;-3.40;63.23
76229;BME280;65021;53.174;18.160;2024-01-16T00:27:32;99191.94;;;-3.44;63.27
76229;BME280;65021;53.174;18.160;2024-01-16T00:29:58;99206.41;;;-3.47;63.25
76229;BME280;65021;53.174;18.160;2024-01-16T00:32:25;99213.28;;;-3.50;63.05
76229;BME280;65021;53.174;18.160;2024-01-16T00:34:51;99219.07;;;-3.51;62.30
76229;BME280;65021;53.174;18.160;2024-01-16T00:37:19;99218.63;;;-3.54;62.68
76229;BME280;65021;53.174;18.160;2024-01-16T00:39:45;99222.95;;;-3.59;62.96
76229;BME280;65021;53.174;18.160;2024-01-16T00:42:12;99227.70;;;-3.63;62.91
76229;BME280;65021;53.174;18.160;2024-01-16T00:44:38;99236.50;;;-3.66;63.85
76229;BME280;65021;53.174;18.160;2024-01-16T00:47:05;99237.94;;;-3.74;63.72
76229;BME280;65021;53.174;18.160;2024-01-16T00:49:31;99241.05;;;-3.80;63.77
76229;BME280;65021;53.174;18.160;2024-01-16T00:51:58;99243.82;;;-3.85;63.55
76229;BME280;65021;53.174;18.160;2024-01-16T00:54:24;99247.35;;;-3.90;64.36
76229;BME280;65021;53.174;18.160;2024-01-16T00:56:51;99253.43;;;-3.98;64.78
76229;BME280;65021;53.174;18.160;2024-01-16T00:59:22;99261.23;;;-4.07;64.79
76229;BME280;65021;53.174;18.160;2024-01-16T01:01:48;99266.30;;;-4.10;64.66
76229;BME280;65021;53.174;18.160;2024-01-16T01:04:15;99262.05;;;-4.13;64.95
76229;BME280;65021;53.174;18.160;2024-01-16T01:06:41;99263.57;;;-4.16;65.19
76229;BME280;65021;53.174;18.160;2024-01-16T01:09:08;99269.52;;;-4.21;65.26
76229;BME280;65021;53.174;18.160;2024-01-16T01:11:38;99276.04;;;-4.19;65.24
76229;BME280;65021;53.174;18.160;2024-01-16T01:14:05;99284.17;;;-4.20;65.50
76229;BME280;65021;53.174;18.160;2024-01-16T01:16:32;99290.55;;;-4.21;65.91
76229;BME280;65021;53.174;18.160;2024-01-16T01:18:58;99296.38;;;-4.19;66.07
76229;BME280;65021;53.174;18.160;2024-01-16T01:21:25;99300.60;;;-4.18;66.04
76229;BME280;65021;53.174;18.160;2024-01-16T01:23:52;99305.92;;;-4.15;65.77
76229;BME280;65021;53.174;18.160;2024-01-16T01:26:18;99310.95;;;-4.12;65.68
76229;BME280;65021;53.174;18.160;2024-01-16T01:28:45;99308.13;;;-4.09;65.78
76229;BME280;65021;53.174;18.160;2024-01-16T01:31:13;99310.91;;;-4.10;65.86
76229;BME280;65021;53.174;18.160;2024-01-16T01:33:39;99317.18;;;-4.13;65.91
76229;BME280;65021;53.174;18.160;2024-01-16T01:36:06;99322.65;;;-4.17;65.32
76229;BME280;65021;53.174;18.160;2024-01-16T01:38:33;99320.69;;;-4.19;64.78
76229;BME280;65021;53.174;18.160;2024-01-16T01:40:59;99323.02;;;-4.20;64.95
76229;BME280;65021;53.174;18.160;2024-01-16T01:43:26;99320.01;;;-4.23;65.08
76229;BME280;65021;53.174;18.160;2024-01-16T01:48:23;99327.55;;;-4.30;65.00
76229;BME280;65021;53.174;18.160;2024-01-16T01:50:49;99328.75;;;-4.33;65.44
76229;BME280;65021;53.174;18.160;2024-01-16T01:53:16;99332.52;;;-4.35;65.08
76229;BME280;65021;53.174;18.160;2024-01-16T01:55:46;99336.23;;;-4.37;65.33
76229;BME280;65021;53.174;18.160;2024-01-16T01:58:12;99342.68;;;-4.41;65.20
76229;BME280;65021;53.174;18.160;2024-01-16T02:00:39;99347.84;;;-4.45;65.50
76229;BME280;65021;53.174;18.160;2024-01-16T02:03:06;99357.20;;;-4.50;65.34
76229;BME280;65021;53.174;18.160;2024-01-16T02:05:33;99366.77;;;-4.54;65.39
76229;BME280;65021;53.174;18.160;2024-01-16T02:07:59;99374.02;;;-4.56;65.33
76229;BME280;65021;53.174;18.160;2024-01-16T02:10:27;99375.33;;;-4.55;64.80
76229;BME280;65021;53.174;18.160;2024-01-16T02:12:53;99376.98;;;-4.52;64.88
76229;BME280;65021;53.174;18.160;2024-01-16T02:15:20;99384.33;;;-4.52;64.91
76229;BME280;65021;53.174;18.160;2024-01-16T02:17:47;99382.05;;;-4.50;65.04
76229;BME280;65021;53.174;18.160;2024-01-16T02:20:14;99388.40;;;-4.48;64.91
76229;BME280;65021;53.174;18.160;2024-01-16T02:22:45;99390.49;;;-4.47;65.11
76229;BME280;65021;53.174;18.160;2024-01-16T02:25:13;99395.05;;;-4.46;64.84
76229;BME280;65021;53.174;18.160;2024-01-16T02:27:40;99399.42;;;-4.45;64.47
76229;BME280;65021;53.174;18.160;2024-01-16T02:30:07;99402.07;;;-4.43;64.56
76229;BME280;65021;53.174;18.160;2024-01-16T02:32:33;99407.77;;;-4.46;64.12
76229;BME280;65021;53.174;18.160;2024-01-16T02:35:00;99411.79;;;-4.49;64.14
76229;BME280;65021;53.174;18.160;2024-01-16T02:37:26;99411.79;;;-4.51;64.12
76229;BME280;65021;53.174;18.160;2024-01-16T02:39:53;99416.36;;;-4.54;63.86
76229;BME280;65021;53.174;18.160;2024-01-16T02:42:19;99417.70;;;-4.57;64.19
76229;BME280;65021;53.174;18.160;2024-01-16T02:44:46;99419.85;;;-4.61;64.51
76229;BME280;65021;53.174;18.160;2024-01-16T02:47:13;99421.31;;;-4.65;64.28
76229;BME280;65021;53.174;18.160;2024-01-16T02:49:39;99422.61;;;-4.67;64.17
76229;BME280;65021;53.174;18.160;2024-01-16T02:52:06;99424.98;;;-4.69;64.56
76229;BME280;65021;53.174;18.160;2024-01-16T02:54:32;99429.70;;;-4.71;64.16
76229;BME280;65021;53.174;18.160;2024-01-16T02:56:59;99432.09;;;-4.72;64.37
76229;BME280;65021;53.174;18.160;2024-01-16T02:59:26;99437.66;;;-4.73;64.63
76229;BME280;65021;53.174;18.160;2024-01-16T03:01:54;99436.38;;;-4.73;64.42
76229;BME280;65021;53.174;18.160;2024-01-16T03:04:21;99440.48;;;-4.74;64.59
76229;BME280;65021;53.174;18.160;2024-01-16T03:06:47;99444.06;;;-4.74;64.53
76229;BME280;65021;53.174;18.160;2024-01-16T03:09:14;99443.44;;;-4.75;64.31
76229;BME280;65021;53.174;18.160;2024-01-16T03:11:40;99446.09;;;-4.76;65.10
76229;BME280;65021;53.174;18.160;2024-01-16T03:14:07;99447.38;;;-4.80;64.94
76229;BME280;65021;53.174;18.160;2024-01-16T03:16:34;99451.53;;;-4.82;65.30
76229;BME280;65021;53.174;18.160;2024-01-16T03:19:01;99459.16;;;-4.86;65.23
76229;BME280;65021;53.174;18.160;2024-01-16T03:21:28;99459.89;;;-4.86;64.98
76229;BME280;65021;53.174;18.160;2024-01-16T03:23:54;99461.98;;;-4.87;64.90
76229;BME280;65021;53.174;18.160;2024-01-16T03:26:21;99462.38;;;-4.88;65.12
76229;BME280;65021;53.174;18.160;2024-01-16T03:28:48;99456.07;;;-4.90;65.25
76229;BME280;65021;53.174;18.160;2024-01-16T03:31:15;99462.36;;;-4.92;65.50
76229;BME280;65021;53.174;18.160;2024-01-16T03:33:41;99466.60;;;-4.93;65.37
76229;BME280;65021;53.174;18.160;2024-01-16T03:36:09;99470.64;;;-4.94;65.14
76229;BME280;65021;53.174;18.160;2024-01-16T03:38:36;99469.93;;;-4.93;65.19
76229;BME280;65021;53.174;18.160;2024-01-16T03:41:03;99469.11;;;-4.95;65.53
76229;BME280;65021;53.174;18.160;2024-01-16T03:43:30;99472.77;;;-4.99;65.82
76229;BME280;65021;53.174;18.160;2024-01-16T03:45:57;99471.48;;;-5.04;65.68
76229;BME280;65021;53.174;18.160;2024-01-16T03:48:24;99474.90;;;-5.06;65.66
76229;BME280;65021;53.174;18.160;2024-01-16T03:50:50;99477.40;;;-5.07;65.87
76229;BME280;65021;53.174;18.160;2024-01-16T03:53:17;99480.62;;;-5.10;65.72
76229;BME280;65021;53.174;18.160;2024-01-16T03:55:43;99482.02;;;-5.12;66.07
76229;BME280;65021;53.174;18.160;2024-01-16T03:58:11;99483.25;;;-5.13;66.18
76229;BME280;65021;53.174;18.160;2024-01-16T04:00:38;99491.73;;;-5.15;66.20
76229;BME280;65021;53.174;18.160;2024-01-16T04:03:04;99495.16;;;-5.19;66.20
76229;BME280;65021;53.174;18.160;2024-01-16T04:05:31;99502.73;;;-5.25;66.17
76229;BME280;65021;53.174;18.160;2024-01-16T04:07:58;99497.28;;;-5.32;66.56
76229;BME280;65021;53.174;18.160;2024-01-16T04:10:24;99498.60;;;-5.39;66.86
76229;BME280;65021;53.174;18.160;2024-01-16T04:12:52;99493.01;;;-5.45;66.71
76229;BME280;65021;53.174;18.160;2024-01-16T04:15:18;99493.23;;;-5.52;67.01
76229;BME280;65021;53.174;18.160;2024-01-16T04:17:44;99490.48;;;-5.59;67.25
76229;BME280;65021;53.174;18.160;2024-01-16T04:20:11;99489.86;;;-5.64;67.46
76229;BME280;65021;53.174;18.160;2024-01-16T04:22:38;99499.00;;;-5.66;67.18
76229;BME280;65021;53.174;18.160;2024-01-16T04:25:05;99504.45;;;-5.68;67.34
76229;BME280;65021;53.174;18.160;2024-01-16T04:27:31;99508.30;;;-5.74;67.23
76229;BME280;65021;53.174;18.160;2024-01-16T04:29:58;99510.23;;;-5.77;67.25
76229;BME280;65021;53.174;18.160;2024-01-16T04:32:25;99514.13;;;-5.77;67.19
76229;BME280;65021;53.174;18.160;2024-01-16T04:34:51;99523.05;;;-5.77;67.31
76229;BME280;65021;53.174;18.160;2024-01-16T04:37:18;99523.08;;;-5.80;67.19
76229;BME280;65021;53.174;18.160;2024-01-16T04:39:44;99528.90;;;-5.81;67.43
76229;BME280;65021;53.174;18.160;2024-01-16T04:42:11;99533.52;;;-5.82;67.47
76229;BME280;65021;53.174;18.160;2024-01-16T04:44:38;99539.04;;;-5.85;67.46
76229;BME280;65021;53.174;18.160;2024-01-16T04:47:05;99535.02;;;-5.89;67.70
76229;BME280;65021;53.174;18.160;2024-01-16T04:49:31;99528.52;;;-5.94;67.52
76229;BME280;65021;53.174;18.160;2024-01-16T04:51:58;99529.36;;;-6.02;67.78
76229;BME280;65021;53.174;18.160;2024-01-16T04:54:24;99543.77;;;-6.08;67.88
76229;BME280;65021;53.174;18.160;2024-01-16T04:56:51;99545.82;;;-6.15;67.99
76229;BME280;65021;53.174;18.160;2024-01-16T04:59:18;99550.33;;;-6.21;67.95
76229;BME280;65021;53.174;18.160;2024-01-16T05:01:45;99548.73;;;-6.29;67.91
76229;BME280;65021;53.174;18.160;2024-01-16T05:04:12;99549.54;;;-6.36;68.08
76229;BME280;65021;53.174;18.160;2024-01-16T05:06:38;99560.90;;;-6.44;68.07
76229;BME280;65021;53.174;18.160;2024-01-16T05:09:05;99569.08;;;-6.52;68.27
76229;BME280;65021;53.174;18.160;2024-01-16T05:11:31;99577.23;;;-6.61;68.36
76229;BME280;65021;53.174;18.160;2024-01-16T05:13:58;99577.38;;;-6.70;68.78
76229;BME280;65021;53.174;18.160;2024-01-16T05:16:25;99580.11;;;-6.78;68.79
76229;BME280;65021;53.174;18.160;2024-01-16T05:18:53;99582.29;;;-6.86;68.79
76229;BME280;65021;53.174;18.160;2024-01-16T05:21:20;99582.97;;;-6.97;68.93
76229;BME280;65021;53.174;18.160;2024-01-16T05:23:47;99584.05;;;-7.08;69.19
76229;BME280;65021;53.174;18.160;2024-01-16T05:26:13;99587.48;;;-7.20;69.02
76229;BME280;65021;53.174;18.160;2024-01-16T05:28:40;99598.33;;;-7.34;69.10
76229;BME280;65021;53.174;18.160;2024-01-16T05:31:06;99603.06;;;-7.51;69.21
76229;BME280;65021;53.174;18.160;2024-01-16T05:33:33;99602.84;;;-7.67;69.61
76229;BME280;65021;53.174;18.160;2024-01-16T05:36:00;99598.83;;;-7.84;69.73
76229;BME280;65021;53.174;18.160;2024-01-16T05:38:27;99603.87;;;-7.93;70.14
76229;BME280;65021;53.174;18.160;2024-01-16T05:40:54;99607.66;;;-8.01;70.48
76229;BME280;65021;53.174;18.160;2024-01-16T05:43:20;99611.91;;;-8.05;70.80
76229;BME280;65021;53.174;18.160;2024-01-16T05:45:47;99617.98;;;-8.15;70.97
76229;BME280;65021;53.174;18.160;2024-01-16T05:48:13;99619.76;;;-8.23;71.13
76229;BME280;65021;53.174;18.160;2024-01-16T05:50:40;99621.86;;;-8.25;71.38
76229;BME280;65021;53.174;18.160;2024-01-16T05:53:06;99623.16;;;-8.28;71.31
76229;BME280;65021;53.174;18.160;2024-01-16T05:55:33;99635.02;;;-8.34;71.30
76229;BME280;65021;53.174;18.160;2024-01-16T05:58:02;99638.67;;;-8.40;71.47
76229;BME280;65021;53.174;18.160;2024-01-16T06:00:28;99638.06;;;-8.49;71.43
76229;BME280;65021;53.174;18.160;2024-01-16T06:02:55;99636.48;;;-8.64;71.73
76229;BME280;65021;53.174;18.160;2024-01-16T06:05:21;99643.20;;;-8.75;71.32
76229;BME280;65021;53.174;18.160;2024-01-16T06:07:48;99649.38;;;-8.87;71.35
76229;BME280;65021;53.174;18.160;2024-01-16T06:10:15;99651.06;;;-8.96;71.52
76229;BME280;65021;53.174;18.160;2024-01-16T06:12:42;99651.77;;;-8.98;71.82
76229;BME280;65021;53.174;18.160;2024-01-16T06:15:09;99655.02;;;-9.02;71.78
76229;BME280;65021;53.174;18.160;2024-01-16T06:17:38;99660.69;;;-9.11;72.38
76229;BME280;65021;53.174;18.160;2024-01-16T06:20:06;99666.58;;;-9.19;72.69
76229;BME280;65021;53.174;18.160;2024-01-16T06:22:32;99670.59;;;-9.21;73.03
76229;BME280;65021;53.174;18.160;2024-01-16T06:24:59;99672.66;;;-9.25;73.03
76229;BME280;65021;53.174;18.160;2024-01-16T06:27:25;99680.91;;;-9.29;73.14
76229;BME280;65021;53.174;18.160;2024-01-16T06:29:52;99688.89;;;-9.31;72.95
76229;BME280;65021;53.174;18.160;2024-01-16T06:32:19;99689.85;;;-9.30;73.33
76229;BME280;65021;53.174;18.160;2024-01-16T06:34:45;99692.93;;;-9.26;73.07
76229;BME280;65021;53.174;18.160;2024-01-16T06:37:12;99690.16;;;-9.19;73.47
76229;BME280;65021;53.174;18.160;2024-01-16T06:39:39;99694.55;;;-9.11;74.14
76229;BME280;65021;53.174;18.160;2024-01-16T06:42:06;99701.48;;;-9.02;73.82
76229;BME280;65021;53.174;18.160;2024-01-16T06:44:32;99700.55;;;-8.99;73.32
76229;BME280;65021;53.174;18.160;2024-01-16T06:46:59;99697.87;;;-9.00;73.13
76229;BME280;65021;53.174;18.160;2024-01-16T06:49:25;99700.56;;;-9.00;73.39
76229;BME280;65021;53.174;18.160;2024-01-16T06:51:53;99702.10;;;-9.01;73.18
76229;BME280;65021;53.174;18.160;2024-01-16T06:54:19;99703.70;;;-8.99;73.55
76229;BME280;65021;53.174;18.160;2024-01-16T06:56:47;99706.45;;;-8.90;73.83
76229;BME280;65021;53.174;18.160;2024-01-16T06:59:15;99711.23;;;-8.81;74.39
76229;BME280;65021;53.174;18.160;2024-01-16T07:01:42;99713.04;;;-8.70;74.11
76229;BME280;65021;53.174;18.160;2024-01-16T07:04:09;99720.75;;;-8.62;74.50
76229;BME280;65021;53.174;18.160;2024-01-16T07:06:36;99719.05;;;-8.55;74.42
76229;BME280;65021;53.174;18.160;2024-01-16T07:09:02;99727.38;;;-8.44;74.23
76229;BME280;65021;53.174;18.160;2024-01-16T07:11:31;99734.02;;;-8.32;74.66
76229;BME280;65021;53.174;18.160;2024-01-16T07:13:57;99734.82;;;-8.19;74.61
76229;BME280;65021;53.174;18.160;2024-01-16T07:16:24;99740.59;;;-8.09;74.52
76229;BME280;65021;53.174;18.160;2024-01-16T07:18:51;99747.31;;;-7.93;74.39
76229;BME280;65021;53.174;18.160;2024-01-16T07:21:18;99754.79;;;-7.79;74.28
76229;BME280;65021;53.174;18.160;2024-01-16T07:23:45;99757.91;;;-7.64;74.16
76229;BME280;65021;53.174;18.160;2024-01-16T07:26:11;99764.30;;;-7.46;74.16
76229;BME280;65021;53.174;18.160;2024-01-16T07:28:38;99768.21;;;-7.27;74.04
76229;BME280;65021;53.174;18.160;2024-01-16T07:31:04;99772.10;;;-7.09;73.74
76229;BME280;65021;53.174;18.160;2024-01-16T07:33:32;99773.88;;;-6.92;73.84
76229;BME280;65021;53.174;18.160;2024-01-16T07:35:58;99782.73;;;-6.75;73.38
76229;BME280;65021;53.174;18.160;2024-01-16T07:38:25;99783.27;;;-6.61;73.28
76229;BME280;65021;53.174;18.160;2024-01-16T07:40:51;99784.61;;;-6.46;73.03
76229;BME280;65021;53.174;18.160;2024-01-16T07:43:18;99784.06;;;-6.32;72.78
76229;BME280;65021;53.174;18.160;2024-01-16T07:45:45;99790.63;;;-6.16;72.69
76229;BME280;65021;53.174;18.160;2024-01-16T07:48:11;99792.16;;;-6.02;72.32
76229;BME280;65021;53.174;18.160;2024-01-16T07:50:38;99792.81;;;-5.89;72.40
76229;BME280;65021;53.174;18.160;2024-01-16T07:53:04;99801.17;;;-5.76;72.18
76229;BME280;65021;53.174;18.160;2024-01-16T07:55:31;99803.75;;;-5.65;71.96
76229;BME280;65021;53.174;18.160;2024-01-16T07:57:57;99803.98;;;-5.52;71.70
76229;BME280;65021;53.174;18.160;2024-01-16T08:00:24;99806.85;;;-5.42;71.48
76229;BME280;65021;53.174;18.160;2024-01-16T08:02:50;99815.44;;;-5.31;71.03
76229;BME280;65021;53.174;18.160;2024-01-16T08:05:17;99817.92;;;-5.22;70.84
76229;BME280;65021;53.174;18.160;2024-01-16T08:07:44;99817.10;;;-5.11;70.59
76229;BME280;65021;53.174;18.160;2024-01-16T08:10:10;99824.16;;;-5.03;70.14
76229;BME280;65021;53.174;18.160;2024-01-16T08:12:37;99831.70;;;-4.98;69.71
76229;BME280;65021;53.174;18.160;2024-01-16T08:15:05;99831.15;;;-4.93;69.72
76229;BME280;65021;53.174;18.160;2024-01-16T08:17:33;99833.81;;;-4.86;69.33
76229;BME280;65021;53.174;18.160;2024-01-16T08:20:00;99837.20;;;-4.81;69.14
76229;BME280;65021;53.174;18.160;2024-01-16T08:22:27;99839.28;;;-4.76;68.70
76229;BME280;65021;53.174;18.160;2024-01-16T08:24:53;99841.41;;;-4.67;68.74
76229;BME280;65021;53.174;18.160;2024-01-16T08:27:20;99850.17;;;-4.60;68.59
76229;BME280;65021;53.174;18.160;2024-01-16T08:29:46;99851.33;;;-4.52;68.37
76229;BME280;65021;53.174;18.160;2024-01-16T08:32:16;99855.80;;;-4.50;67.59
76229;BME280;65021;53.174;18.160;2024-01-16T08:34:43;99860.73;;;-4.49;66.99
76229;BME280;65021;53.174;18.160;2024-01-16T08:37:10;99856.42;;;-4.47;66.38
76229;BME280;65021;53.174;18.160;2024-01-16T08:39:36;99861.02;;;-4.44;65.96
76229;BME280;65021;53.174;18.160;2024-01-16T08:42:03;99861.60;;;-4.44;65.86
76229;BME280;65021;53.174;18.160;2024-01-16T08:44:29;99871.77;;;-4.39;66.25
76229;BME280;65021;53.174;18.160;2024-01-16T08:46:56;99875.61;;;-4.32;65.99
76229;BME280;65021;53.174;18.160;2024-01-16T08:49:24;99880.34;;;-4.24;65.40
76229;BME280;65021;53.174;18.160;2024-01-16T08:51:50;99880.88;;;-4.25;64.28
76229;BME280;65021;53.174;18.160;2024-01-16T08:54:17;99883.59;;;-4.19;64.57
76229;BME280;65021;53.174;18.160;2024-01-16T08:56:44;99883.23;;;-4.14;64.70
76229;BME280;65021;53.174;18.160;2024-01-16T08:59:10;99887.27;;;-4.11;64.40
76229;BME280;65021;53.174;18.160;2024-01-16T09:01:37;99891.23;;;-4.07;64.31
76229;BME280;65021;53.174;18.160;2024-01-16T09:04:04;99891.91;;;-4.07;63.29
76229;BME280;65021;53.174;18.160;2024-01-16T09:06:30;99895.67;;;-4.02;64.39
76229;BME280;65021;53.174;18.160;2024-01-16T09:08:57;99900.76;;;-3.96;64.48
76229;BME280;65021;53.174;18.160;2024-01-16T09:11:23;99905.48;;;-3.92;63.38
76229;BME280;65021;53.174;18.160;2024-01-16T09:13:50;99911.10;;;-3.91;62.97
76229;BME280;65021;53.174;18.160;2024-01-16T09:16:17;99916.55;;;-3.86;63.67
76229;BME280;65021;53.174;18.160;2024-01-16T09:18:44;99915.55;;;-3.78;63.28
76229;BME280;65021;53.174;18.160;2024-01-16T09:21:10;99919.48;;;-3.66;63.78
76229;BME280;65021;53.174;18.160;2024-01-16T09:23:37;99928.08;;;-3.56;64.14
76229;BME280;65021;53.174;18.160;2024-01-16T09:26:03;99929.69;;;-3.48;64.21
76229;BME280;65021;53.174;18.160;2024-01-16T09:28:30;99932.58;;;-3.42;63.65
76229;BME280;65021;53.174;18.160;2024-01-16T09:30:57;99930.22;;;-3.44;62.74
76229;BME280;65021;53.174;18.160;2024-01-16T09:33:24;99931.95;;;-3.50;63.39
76229;BME280;65021;53.174;18.160;2024-01-16T09:35:52;99941.98;;;-3.57;63.21
76229;BME280;65021;53.174;18.160;2024-01-16T09:38:18;99945.71;;;-3.57;63.24
76229;BME280;65021;53.174;18.160;2024-01-16T09:40:46;99950.26;;;-3.60;63.47
76229;BME280;65021;53.174;18.160;2024-01-16T09:43:13;99944.78;;;-3.65;63.32
76229;BME280;65021;53.174;18.160;2024-01-16T09:45:41;99946.60;;;-3.68;63.19
76229;BME280;65021;53.174;18.160;2024-01-16T09:48:08;99949.06;;;-3.72;63.39
76229;BME280;65021;53.174;18.160;2024-01-16T09:50:34;99952.99;;;-3.80;63.26
76229;BME280;65021;53.174;18.160;2024-01-16T09:53:02;99954.65;;;-3.83;63.92
76229;BME280;65021;53.174;18.160;2024-01-16T09:55:28;99957.98;;;-3.75;63.87
76229;BME280;65021;53.174;18.160;2024-01-16T09:57:55;99969.73;;;-3.62;63.92
76229;BME280;65021;53.174;18.160;2024-01-16T10:00:24;99972.81;;;-3.52;63.50
76229;BME280;65021;53.174;18.160;2024-01-16T10:02:52;99977.41;;;-3.46;62.79
76229;BME280;65021;53.174;18.160;2024-01-16T10:05:19;99974.82;;;-3.43;62.49
76229;BME280;65021;53.174;18.160;2024-01-16T10:07:49;99979.59;;;-3.35;62.99
76229;BME280;65021;53.174;18.160;2024-01-16T10:10:16;99981.48;;;-3.35;61.75
76229;BME280;65021;53.174;18.160;2024-01-16T10:12:46;99986.73;;;-3.40;61.11
76229;BME280;65021;53.174;18.160;2024-01-16T10:15:13;99989.64;;;-3.43;61.46
76229;BME280;65021;53.174;18.160;2024-01-16T10:17:42;99988.42;;;-3.48;60.76
76229;BME280;65021;53.174;18.160;2024-01-16T10:20:10;99992.83;;;-3.45;61.11
76229;BME280;65021;53.174;18.160;2024-01-16T10:22:40;99994.50;;;-3.33;61.98
76229;BME280;65021;53.174;18.160;2024-01-16T10:27:36;99997.95;;;-3.10;62.06
76229;BME280;65021;53.174;18.160;2024-01-16T10:30:03;99998.29;;;-2.98;61.17
76229;BME280;65021;53.174;18.160;2024-01-16T10:32:33;99995.98;;;-2.98;60.63
76229;BME280;65021;53.174;18.160;2024-01-16T10:37:51;100006.34;;;-3.05;60.82
76229;BME280;65021;53.174;18.160;2024-01-16T10:40:18;100003.80;;;-3.03;61.30
76229;BME280;65021;53.174;18.160;2024-01-16T10:42:48;99998.91;;;-2.91;62.01
76229;BME280;65021;53.174;18.160;2024-01-16T10:45:23;99997.76;;;-2.76;61.75
76229;BME280;65021;53.174;18.160;2024-01-16T10:48:00;100002.85;;;-2.72;61.33
76229;BME280;65021;53.174;18.160;2024-01-16T10:50:27;100000.95;;;-2.70;61.40
76229;BME280;65021;53.174;18.160;2024-01-16T10:52:54;99998.02;;;-2.68;61.91
76229;BME280;65021;53.174;18.160;2024-01-16T10:55:22;100000.14;;;-2.72;61.34
76229;BME280;65021;53.174;18.160;2024-01-16T10:57:50;100003.26;;;-2.77;61.24
76229;BME280;65021;53.174;18.160;2024-01-16T11:00:21;100006.75;;;-2.69;61.35
76229;BME280;65021;53.174;18.160;2024-01-16T11:03:05;100009.84;;;-2.62;61.05
76229;BME280;65021;53.174;18.160;2024-01-16T11:05:32;100002.33;;;-2.51;61.33
76229;BME280;65021;53.174;18.160;2024-01-16T11:08:00;100005.30;;;-2.40;61.34
76229;BME280;65021;53.174;18.160;2024-01-16T11:10:32;100005.23;;;-2.34;60.46
76229;BME280;65021;53.174;18.160;2024-01-16T11:13:02;100005.49;;;-2.35;59.91
76229;BME280;65021;53.174;18.160;2024-01-16T11:15:31;100007.05;;;-2.32;60.73
76229;BME280;65021;53.174;18.160;2024-01-16T11:17:59;100010.23;;;-2.26;60.26
76229;BME280;65021;53.174;18.160;2024-01-16T11:20:27;100012.80;;;-2.27;60.15
76229;BME280;65021;53.174;18.160;2024-01-16T11:22:55;100016.27;;;-2.28;60.36
76229;BME280;65021;53.174;18.160;2024-01-16T11:25:33;100019.63;;;-2.32;60.28
76229;BME280;65021;53.174;18.160;2024-01-16T11:28:13;100024.80;;;-2.41;60.74
76229;BME280;65021;53.174;18.160;2024-01-16T11:30:40;100026.20;;;-2.53;60.40
76229;BME280;65021;53.174;18.160;2024-01-16T11:36:00;100027.97;;;-2.63;61.45
76229;BME280;65021;53.174;18.160;2024-01-16T11:38:27;100030.73;;;-2.71;61.14
76229;BME280;65021;53.174;18.160;2024-01-16T11:40:56;100034.05;;;-2.75;61.33
76229;BME280;65021;53.174;18.160;2024-01-16T11:46:17;100038.98;;;-2.71;61.13
76229;BME280;65021;53.174;18.160;2024-01-16T11:49:02;100041.37;;;-2.69;60.24
76229;BME280;65021;53.174;18.160;2024-01-16T11:51:29;100038.77;;;-2.72;60.28
76229;BME280;65021;53.174;18.160;2024-01-16T11:53:55;100036.27;;;-2.75;61.01
76229;BME280;65021;53.174;18.160;2024-01-16T11:56:38;100036.37;;;-2.82;59.99
76229;BME280;65021;53.174;18.160;2024-01-16T12:01:59;100040.40;;;-2.79;61.01
76229;BME280;65021;53.174;18.160;2024-01-16T12:04:26;100037.77;;;-2.69;61.26
76229;BME280;65021;53.174;18.160;2024-01-16T12:06:58;100045.75;;;-2.59;61.42
76229;BME280;65021;53.174;18.160;2024-01-16T12:09:28;100046.95;;;-2.49;61.41
76229;BME280;65021;53.174;18.160;2024-01-16T12:11:59;100049.90;;;-2.38;61.20
76229;BME280;65021;53.174;18.160;2024-01-16T12:14:27;100049.02;;;-2.32;61.10
76229;BME280;65021;53.174;18.160;2024-01-16T12:19:37;100050.40;;;-2.18;60.43
76229;BME280;65021;53.174;18.160;2024-01-16T12:22:09;100048.23;;;-2.14;60.55
76229;BME280;65021;53.174;18.160;2024-01-16T12:24:36;100049.67;;;-2.09;60.39
76229;BME280;65021;53.174;18.160;2024-01-16T12:27:04;100049.54;;;-2.12;58.96
76229;BME280;65021;53.174;18.160;2024-01-16T12:29:32;100051.81;;;-2.20;59.77
76229;BME280;65021;53.174;18.160;2024-01-16T12:32:11;100056.85;;;-2.30;59.42
76229;BME280;65021;53.174;18.160;2024-01-16T12:34:46;100051.54;;;-2.44;59.43
76229;BME280;65021;53.174;18.160;2024-01-16T12:37:14;100053.19;;;-2.50;59.41
76229;BME280;65021;53.174;18.160;2024-01-16T12:39:41;100049.60;;;-2.59;59.20
76229;BME280;65021;53.174;18.160;2024-01-16T12:42:11;100050.83;;;-2.61;59.73
76229;BME280;65021;53.174;18.160;2024-01-16T12:44:38;100051.48;;;-2.64;59.44
76229;BME280;65021;53.174;18.160;2024-01-16T12:47:05;100059.41;;;-2.64;59.51
76229;BME280;65021;53.174;18.160;2024-01-16T12:49:31;100066.37;;;-2.63;59.87
76229;BME280;65021;53.174;18.160;2024-01-16T12:52:25;100068.70;;;-2.65;59.55
76229;BME280;65021;53.174;18.160;2024-01-16T12:55:00;100077.45;;;-2.73;59.63
76229;BME280;65021;53.174;18.160;2024-01-16T12:57:36;100078.70;;;-2.75;59.86
76229;BME280;65021;53.174;18.160;2024-01-16T13:00:23;100083.14;;;-2.77;59.67
76229;BME280;65021;53.174;18.160;2024-01-16T13:02:51;100085.51;;;-2.80;59.47
76229;BME280;65021;53.174;18.160;2024-01-16T13:05:18;100087.67;;;-2.81;59.15
76229;BME280;65021;53.174;18.160;2024-01-16T13:07:45;100088.27;;;-2.84;59.55